Time;durP1;ratioP1;P1;durP2;ratioP2;P2;SDS_P1;SDS_P2;PMS_P1;PMS_P2;Temp;Humidity;BMP_temperature;BMP_pressure;BME280_temperature;BME280_humidity;BME280_pressure;Samples;Min_cycle;Max_cycle;Signal;HPM_P1;HPM_P2
2023/09/23 00:02:22;;;;;;;16.70;9.10;;;;;;;25.91;43.39;100696.79;102928;1297;61339;-81
2023/09/23 00:04:48;;;;;;;16.50;9.40;;;;;;;25.90;43.50;100698.61;102950;1295;61475;-82
2023/09/23 00:07:13;;;;;;;14.60;9.20;;;;;;;25.90;43.51;100704.92;103108;1294;61403;-81
2023/09/23 00:09:40;;;;;;;16.80;9.50;;;;;;;25.91;43.36;100703.83;103033;1295;61393;-81
2023/09/23 00:12:06;;;;;;;15.90;9.10;;;;;;;25.90;43.20;100701.69;102933;1294;62587;-81
2023/09/23 00:14:32;;;;;;;20.20;9.90;;;;;;;25.90;43.21;100705.44;103006;1297;61500;-81
2023/09/23 00:16:58;;;;;;;20.60;9.90;;;;;;;25.90;43.22;100708.34;102944;1294;61729;-82
2023/09/23 00:19:25;;;;;;;19.60;9.50;;;;;;;25.90;43.45;100714.33;102752;1300;61622;-81
2023/09/23 00:21:52;;;;;;;17.60;9.60;;;;;;;25.90;43.34;100714.88;102949;1293;61861;-81
2023/09/23 00:24:18;;;;;;;20.50;9.50;;;;;;;25.91;43.43;100718.06;102922;1295;61413;-81
2023/09/23 00:26:43;;;;;;;16.30;8.40;;;;;;;25.90;43.27;100710.03;102955;1297;61395;-81
2023/09/23 00:29:11;;;;;;;17.40;9.20;;;;;;;25.90;43.21;100707.64;103088;1292;61407;-81
2023/09/23 00:31:37;;;;;;;20.20;9.20;;;;;;;25.90;43.26;100705.67;103036;1294;61347;-82
2023/09/23 00:34:03;;;;;;;15.30;9.40;;;;;;;25.90;43.31;100699.75;103024;1297;62317;-82
2023/09/23 00:36:29;;;;;;;21.00;8.60;;;;;;;25.90;43.25;100696.34;102821;1293;61553;-81
2023/09/23 00:38:56;;;;;;;21.90;8.70;;;;;;;25.90;43.30;100696.17;103027;1294;61498;-81
2023/09/23 00:41:25;;;;;;;17.90;8.60;;;;;;;25.89;43.23;100696.71;102992;1294;61395;-81
2023/09/23 00:43:51;;;;;;;;;;;;;;;25.89;43.18;100692.04;103117;1293;63776;-81
2023/09/23 00:46:22;;;;;;;18.10;8.10;;;;;;;25.87;43.16;100692.95;103015;1297;61338;-82
2023/09/23 00:48:48;;;;;;;18.10;9.10;;;;;;;25.88;43.11;100693.46;103001;1294;61348;-81
2023/09/23 00:51:14;;;;;;;24.40;9.00;;;;;;;25.88;43.15;100690.39;103016;1295;61286;-82
2023/09/23 00:53:39;;;;;;;19.00;8.50;;;;;;;25.89;43.03;100695.35;102995;1294;61485;-81
2023/09/23 00:56:05;;;;;;;14.30;8.10;;;;;;;25.88;43.17;100695.23;102942;1295;61391;-81
2023/09/23 00:58:31;;;;;;;19.10;8.50;;;;;;;25.88;43.10;100693.98;102883;1294;61347;-81
2023/09/23 01:00:58;;;;;;;18.90;7.80;;;;;;;25.88;43.14;100700.98;102992;1294;61410;-81
2023/09/23 01:03:24;;;;;;;14.70;8.20;;;;;;;25.88;43.07;100698.13;102908;1297;61310;-81
2023/09/23 01:06:03;;;;;;;16.80;7.50;;;;;;;25.88;42.87;100698.48;102995;1296;61461;-81
2023/09/23 01:08:29;;;;;;;20.80;7.90;;;;;;;25.88;43.04;100704.05;102766;1298;61485;-81
2023/09/23 01:10:56;;;;;;;17.80;8.00;;;;;;;25.88;43.08;100702.46;103038;1295;62363;-81
2023/09/23 01:13:24;;;;;;;13.60;8.00;;;;;;;25.88;43.03;100704.59;102904;1297;61378;-81
2023/09/23 01:15:51;;;;;;;16.60;7.90;;;;;;;25.88;42.88;100702.42;102911;1291;65768;-81
2023/09/23 01:18:17;;;;;;;18.90;8.10;;;;;;;25.88;43.02;100704.59;102904;1295;61389;-81
2023/09/23 01:20:48;;;;;;;14.00;7.30;;;;;;;25.88;43.03;100707.27;102976;1291;61428;-81
2023/09/23 01:23:15;;;;;;;16.00;7.10;;;;;;;25.88;42.92;100700.09;102892;1295;63837;-81
2023/09/23 01:25:41;;;;;;;19.00;7.30;;;;;;;25.88;42.93;100703.16;102970;1295;65648;-81
2023/09/23 01:28:13;;;;;;;17.30;7.70;;;;;;;25.88;42.86;100704.22;103001;1293;62185;-81
2023/09/23 01:30:40;;;;;;;18.50;8.00;;;;;;;25.88;42.87;100704.29;103024;1295;61294;-81
2023/09/23 01:33:07;;;;;;;18.40;7.30;;;;;;;25.88;42.86;100705.70;102994;1297;61414;-81
2023/09/23 01:35:34;;;;;;;15.40;7.00;;;;;;;25.88;42.73;100706.05;102939;1295;66824;-81
2023/09/23 01:38:02;;;;;;;18.50;7.40;;;;;;;25.87;42.77;100703.95;102919;1294;61311;-81
2023/09/23 01:40:31;;;;;;;16.70;7.20;;;;;;;25.88;42.87;100702.30;103129;1295;61361;-82
2023/09/23 01:42:57;;;;;;;18.00;7.20;;;;;;;25.88;42.67;100698.00;102933;1297;63840;-81
2023/09/23 01:45:23;;;;;;;19.50;7.10;;;;;;;25.87;42.59;100693.67;102978;1294;62204;-81
2023/09/23 01:47:49;;;;;;;14.20;7.20;;;;;;;25.87;42.62;100688.28;102948;1294;61517;-81
2023/09/23 01:50:17;;;;;;;15.60;6.70;;;;;;;25.88;42.54;100687.73;102993;1294;61958;-81
2023/09/23 01:52:44;;;;;;;13.20;7.00;;;;;;;25.88;42.67;100688.23;102976;1297;63599;-81
2023/09/23 01:55:12;;;;;;;13.10;6.90;;;;;;;25.87;42.81;100689.91;103022;1297;61818;-81
2023/09/23 01:57:41;;;;;;;12.30;6.40;;;;;;;25.87;42.63;100692.05;102954;1293;61407;-81
2023/09/23 02:00:08;;;;;;;14.40;6.80;;;;;;;25.87;42.60;100700.38;102865;1299;61336;-81
2023/09/23 02:02:34;;;;;;;16.60;7.20;;;;;;;25.87;42.70;100707.92;102858;1293;64035;-81
2023/09/23 02:04:59;;;;;;;13.30;6.50;;;;;;;25.87;42.54;100709.20;102952;1298;61481;-81
2023/09/23 02:07:26;;;;;;;15.50;6.60;;;;;;;25.87;42.69;100715.33;102908;1294;62342;-81
2023/09/23 02:09:53;;;;;;;14.60;6.10;;;;;;;25.87;42.62;100717.89;102979;1299;61410;-81
2023/09/23 02:12:20;;;;;;;12.80;6.50;;;;;;;25.87;42.55;100721.52;103077;1297;61375;-81
2023/09/23 02:14:46;;;;;;;11.00;6.10;;;;;;;25.87;42.82;100728.31;102888;1295;65811;-81
2023/09/23 02:17:12;;;;;;;12.70;6.50;;;;;;;25.87;42.66;100728.51;102946;1295;61399;-82
2023/09/23 02:19:38;;;;;;;16.40;6.70;;;;;;;25.87;42.68;100728.52;103001;1294;62309;-81
2023/09/23 02:22:06;;;;;;;12.50;6.40;;;;;;;25.87;42.56;100726.89;102943;1297;61401;-82
2023/09/23 02:24:36;;;;;;;14.90;6.00;;;;;;;25.87;42.72;100731.95;102883;1298;61420;-82
2023/09/23 02:27:05;;;;;;;16.80;6.50;;;;;;;25.87;42.74;100737.93;102909;1292;61360;-81
2023/09/23 02:29:33;;;;;;;15.20;6.70;;;;;;;25.87;42.53;100746.18;102968;1295;61282;-81
2023/09/23 02:32:00;;;;;;;13.90;6.20;;;;;;;25.86;42.68;100741.40;102903;1297;61407;-81
2023/09/23 02:34:27;;;;;;;11.30;6.40;;;;;;;25.86;42.59;100741.77;102986;1294;65932;-82
2023/09/23 02:36:52;;;;;;;13.00;6.00;;;;;;;25.86;42.53;100742.15;103008;1293;61403;-81
2023/09/23 02:39:20;;;;;;;10.10;5.80;;;;;;;25.86;42.57;100745.38;102921;1295;61273;-82
2023/09/23 02:41:47;;;;;;;10.70;5.80;;;;;;;25.86;42.50;100747.55;102904;1292;63724;-81
2023/09/23 02:44:19;;;;;;;12.70;6.10;;;;;;;25.86;42.75;100748.83;102944;1291;65691;-81
2023/09/23 02:46:46;;;;;;;13.00;6.10;;;;;;;25.86;42.71;100749.89;102651;1297;61931;-81
2023/09/23 02:49:15;;;;;;;12.20;6.10;;;;;;;25.85;42.62;100751.20;102967;1295;61418;-81
2023/09/23 02:51:42;;;;;;;10.20;5.80;;;;;;;25.85;42.61;100752.64;102856;1294;63744;-81
2023/09/23 02:54:09;;;;;;;13.40;6.00;;;;;;;25.86;42.54;100748.25;102961;1296;65528;-81
2023/09/23 02:56:35;;;;;;;12.10;6.50;;;;;;;25.85;42.37;100740.20;103005;1292;61327;-81
2023/09/23 02:59:11;;;;;;;12.80;6.00;;;;;;;25.85;42.52;100732.09;102967;1297;61403;-81
2023/09/23 03:01:39;;;;;;;13.30;6.10;;;;;;;25.84;42.60;100726.40;103015;1294;63850;-81
2023/09/23 03:04:16;;;;;;;10.50;5.80;;;;;;;25.84;42.50;100723.53;102890;1297;65905;-82
2023/09/23 03:06:49;;;;;;;13.20;6.60;;;;;;;25.84;42.41;100730.02;102795;1292;356820;-81
2023/09/23 03:09:19;;;;;;;13.00;6.20;;;;;;;25.84;42.48;100733.30;103012;1294;61468;-81
2023/09/23 03:11:53;;;;;;;10.50;6.10;;;;;;;25.84;42.50;100733.64;102798;1294;62536;-82
2023/09/23 03:14:23;;;;;;;13.30;5.90;;;;;;;25.84;42.24;100730.45;102978;1294;65809;-82
2023/09/23 03:16:53;;;;;;;11.70;5.70;;;;;;;25.84;42.28;100732.55;102984;1296;61417;-82
2023/09/23 03:19:24;;;;;;;14.60;5.80;;;;;;;25.84;42.34;100729.70;103069;1292;61342;-82
2023/09/23 03:21:57;;;;;;;12.40;6.10;;;;;;;25.84;42.35;100730.65;102986;1297;62703;-82
2023/09/23 03:24:28;;;;;;;12.10;5.70;;;;;;;25.84;42.51;100729.55;103038;1297;66106;-82
2023/09/23 03:26:58;;;;;;;10.50;5.50;;;;;;;25.84;42.49;100729.02;102632;1294;61519;-82
2023/09/23 03:29:32;;;;;;;11.90;5.40;;;;;;;25.83;42.36;100727.39;102966;1293;61296;-82
2023/09/23 03:31:59;;;;;;;10.90;5.30;;;;;;;25.83;42.36;100727.23;102918;1294;63914;-82
2023/09/23 03:34:26;;;;;;;14.10;5.80;;;;;;;25.83;42.35;100727.27;102902;1297;61393;-82
2023/09/23 03:36:53;;;;;;;8.80;5.30;;;;;;;25.83;42.25;100727.06;103054;1297;61476;-82
2023/09/23 03:39:19;;;;;;;10.80;5.60;;;;;;;25.83;42.44;100727.44;102881;1294;61405;-82
2023/09/23 03:41:46;;;;;;;10.80;5.20;;;;;;;25.83;42.44;100728.34;102879;1292;62958;-82
2023/09/23 03:44:14;;;;;;;9.90;5.30;;;;;;;25.83;42.36;100731.08;102598;1294;64725;-82
2023/09/23 03:46:46;;;;;;;10.10;4.70;;;;;;;25.82;42.32;100728.77;103015;1295;61380;-82
2023/09/23 03:49:11;;;;;;;9.20;5.00;;;;;;;25.83;42.23;100734.88;102904;1296;61398;-82
2023/09/23 03:51:37;;;;;;;10.30;5.70;;;;;;;25.82;42.31;100741.74;102897;1298;61405;-82
2023/09/23 03:54:05;;;;;;;12.40;5.60;;;;;;;25.82;42.25;100743.73;102996;1296;62070;-82
2023/09/23 03:56:33;;;;;;;13.90;5.40;;;;;;;25.82;42.13;100742.11;103019;1294;61268;-82
2023/09/23 03:59:01;;;;;;;9.80;4.90;;;;;;;25.82;42.28;100742.32;103085;1294;61202;-82
2023/09/23 04:01:27;;;;;;;11.60;5.30;;;;;;;25.82;42.23;100750.98;102809;1292;62827;-82
2023/09/23 04:03:54;;;;;;;10.50;5.50;;;;;;;25.82;42.24;100759.46;102945;1297;61392;-82
2023/09/23 04:06:20;;;;;;;9.40;5.10;;;;;;;25.82;42.37;100772.39;103025;1296;61676;-82
2023/09/23 04:08:47;;;;;;;9.20;5.00;;;;;;;25.82;42.41;100778.58;103001;1294;61928;-82
2023/09/23 04:11:15;;;;;;;9.00;4.80;;;;;;;25.82;42.16;100778.78;103000;1295;61680;-82
2023/09/23 04:13:44;;;;;;;9.70;4.60;;;;;;;25.82;42.21;100776.61;102956;1293;66683;-82
2023/09/23 04:16:11;;;;;;;;;;;;;;;25.81;42.33;100775.90;103028;1292;62203;-82
2023/09/23 04:18:37;;;;;;;9.90;4.80;;;;;;;25.80;42.49;100778.37;103041;1294;62201;-82
2023/09/23 04:21:04;;;;;;;10.90;4.50;;;;;;;25.80;42.34;100780.17;102989;1295;62218;-81
2023/09/23 04:23:30;;;;;;;11.20;4.80;;;;;;;25.81;42.28;100789.16;103017;1297;62330;-81
2023/09/23 04:25:56;;;;;;;8.40;4.70;;;;;;;25.80;42.38;100794.56;102906;1297;62194;-82
2023/09/23 04:28:22;;;;;;;8.40;4.70;;;;;;;25.80;42.42;100794.39;102967;1295;62340;-81
2023/09/23 04:30:57;;;;;;;6.00;4.20;;;;;;;25.81;42.44;100790.55;103022;1297;62011;-83
2023/09/23 04:33:25;;;;;;;9.10;4.70;;;;;;;25.81;42.34;100789.48;102897;1297;66689;-82
2023/09/23 04:35:51;;;;;;;12.40;5.10;;;;;;;25.81;42.45;100790.73;103036;1294;62135;-82
2023/09/23 04:38:17;;;;;;;9.60;4.70;;;;;;;25.81;42.47;100790.76;102906;1297;62319;-82
2023/09/23 04:40:43;;;;;;;12.10;4.80;;;;;;;25.81;42.45;100791.30;102893;1293;62531;-83
2023/09/23 04:43:12;;;;;;;8.00;4.20;;;;;;;25.81;42.33;100798.84;102927;1297;63179;-82
2023/09/23 04:45:38;;;;;;;10.20;4.80;;;;;;;25.81;42.57;100806.77;103008;1296;62300;-82
2023/09/23 04:48:06;;;;;;;10.60;4.50;;;;;;;25.81;42.43;100817.37;103054;1295;62291;-82
2023/09/23 04:50:31;;;;;;;8.30;4.60;;;;;;;25.82;42.40;100821.10;103051;1296;64010;-82
2023/09/23 04:52:59;;;;;;;7.70;4.20;;;;;;;25.82;42.54;100825.42;102749;1297;63112;-82
2023/09/23 04:55:26;;;;;;;8.00;4.40;;;;;;;25.82;42.61;100825.23;103085;1297;62141;-83
2023/09/23 04:57:51;;;;;;;9.40;4.60;;;;;;;25.82;42.47;100827.80;103137;1295;62215;-83
2023/09/23 05:00:18;;;;;;;8.00;4.40;;;;;;;25.82;42.62;100826.48;103160;1298;63244;-83
2023/09/23 05:02:48;;;;;;;8.60;4.30;;;;;;;25.82;42.53;100827.41;103069;1295;62221;-82
2023/09/23 05:05:13;;;;;;;7.60;4.30;;;;;;;25.83;42.57;100834.94;102823;1292;62139;-83
2023/09/23 05:07:39;;;;;;;6.80;4.50;;;;;;;25.83;42.60;100839.94;102892;1293;62768;-83
2023/09/23 05:10:06;;;;;;;9.50;4.50;;;;;;;25.83;42.70;100849.48;102973;1296;62831;-82
2023/09/23 05:12:32;;;;;;;9.40;4.50;;;;;;;25.84;42.60;100850.70;102980;1296;62639;-83
2023/09/23 05:14:58;;;;;;;8.60;4.40;;;;;;;25.83;42.75;100850.19;102985;1293;62287;-82
2023/09/23 05:17:27;;;;;;;8.70;4.60;;;;;;;25.83;42.71;100843.34;102987;1298;62263;-83
2023/09/23 05:19:53;;;;;;;7.00;4.10;;;;;;;25.83;42.54;100837.39;102898;1299;64925;-82
2023/09/23 05:22:20;;;;;;;11.40;4.40;;;;;;;25.84;42.59;100836.06;102963;1292;62142;-82
2023/09/23 05:24:54;;;;;;;10.00;4.20;;;;;;;25.84;42.62;100834.81;102987;1297;62188;-83
2023/09/23 05:27:20;;;;;;;8.40;4.30;;;;;;;25.83;42.64;100844.05;102972;1298;62548;-82
2023/09/23 05:29:50;;;;;;;8.00;4.10;;;;;;;25.84;42.65;100847.77;102943;1297;63253;-82
2023/09/23 05:32:22;;;;;;;7.30;4.10;;;;;;;25.84;42.60;100851.39;102989;1296;66500;-82
2023/09/23 05:34:51;;;;;;;7.40;3.80;;;;;;;25.84;42.72;100847.59;102998;1297;62228;-82
2023/09/23 05:37:18;;;;;;;9.40;4.10;;;;;;;25.84;42.70;100849.80;103071;1294;62181;-83
2023/09/23 05:39:45;;;;;;;7.10;4.10;;;;;;;25.84;42.80;100852.29;103029;1297;62149;-82
2023/09/23 05:42:13;;;;;;;8.40;4.00;;;;;;;25.84;42.66;100853.01;102767;1297;65563;-82
2023/09/23 05:44:41;;;;;;;7.10;4.10;;;;;;;25.84;42.58;100861.29;103059;1292;62094;-83
2023/09/23 05:47:06;;;;;;;8.20;4.30;;;;;;;25.85;42.83;100863.77;102961;1297;62083;-83
2023/09/23 05:49:32;;;;;;;6.90;4.10;;;;;;;25.85;42.84;100856.20;102929;1297;62210;-82
2023/09/23 05:51:57;;;;;;;7.70;4.00;;;;;;;25.84;42.77;100843.77;102861;1295;62177;-82
2023/09/23 05:54:23;;;;;;;8.60;4.30;;;;;;;25.85;42.74;100846.41;102992;1297;62313;-82
2023/09/23 05:56:49;;;;;;;7.50;4.20;;;;;;;25.85;42.76;100851.44;102995;1297;62269;-82
2023/09/23 05:59:15;;;;;;;8.50;4.10;;;;;;;25.86;42.63;100859.90;102898;1293;62198;-82
2023/09/23 06:01:42;;;;;;;7.20;3.90;;;;;;;25.86;42.56;100866.22;102917;1299;63307;-83
2023/09/23 06:04:10;;;;;;;7.90;4.20;;;;;;;25.85;42.77;100870.55;103000;1296;66523;-82
2023/09/23 06:06:39;;;;;;;7.50;4.10;;;;;;;25.86;42.74;100868.89;103021;1292;62147;-82
2023/09/23 06:09:08;;;;;;;7.10;4.30;;;;;;;25.86;42.71;100875.89;102853;1293;62218;-82
2023/09/23 06:11:34;;;;;;;9.40;4.50;;;;;;;25.86;42.87;100878.80;102883;1298;63803;-82
2023/09/23 06:13:59;;;;;;;7.30;4.00;;;;;;;25.86;42.71;100883.64;102968;1297;63337;-83
2023/09/23 06:16:25;;;;;;;7.20;3.90;;;;;;;25.86;42.75;100883.10;102995;1305;62244;-83
2023/09/23 06:18:51;;;;;;;8.60;4.40;;;;;;;25.87;42.72;100883.75;103038;1298;62202;-83
2023/09/23 06:21:17;;;;;;;6.50;4.00;;;;;;;25.87;42.76;100885.70;102993;1303;62233;-82
2023/09/23 06:23:43;;;;;;;7.40;4.50;;;;;;;25.88;42.82;100892.67;103020;1297;62192;-82
2023/09/23 06:26:10;;;;;;;6.00;4.10;;;;;;;25.88;42.88;100896.61;103008;1298;62315;-82
2023/09/23 06:28:36;;;;;;;7.30;4.10;;;;;;;25.88;42.81;100897.66;102985;1292;62128;-83
2023/09/23 06:31:06;;;;;;;8.70;4.40;;;;;;;25.89;42.92;100897.44;102995;1295;62206;-82
2023/09/23 06:33:32;;;;;;;6.30;3.60;;;;;;;25.89;42.90;100896.32;103071;1296;64908;-82
2023/09/23 06:36:04;;;;;;;8.00;3.90;;;;;;;25.90;42.95;100894.27;102983;1297;62681;-82
2023/09/23 06:38:30;;;;;;;7.00;3.90;;;;;;;25.91;42.90;100897.66;103029;1292;62087;-82
2023/09/23 06:40:58;;;;;;;7.00;3.80;;;;;;;25.91;43.05;100901.24;103083;1293;63985;-82
2023/09/23 06:43:24;;;;;;;6.90;4.00;;;;;;;25.91;43.16;100908.59;103154;1292;62192;-83
2023/09/23 06:46:07;;;;;;;6.60;4.00;;;;;;;25.92;43.32;100913.72;102921;1297;62716;-82
2023/09/23 06:48:33;;;;;;;6.20;4.10;;;;;;;25.93;43.32;100915.29;103016;1297;62201;-82
2023/09/23 06:51:01;;;;;;;6.70;3.90;;;;;;;25.93;43.23;100915.60;103078;1296;62196;-83
2023/09/23 06:53:27;;;;;;;7.20;4.20;;;;;;;25.94;43.32;100916.46;102891;1292;63824;-82
2023/09/23 06:55:53;;;;;;;6.00;4.30;;;;;;;25.95;43.35;100922.48;102975;1292;62172;-82
2023/09/23 06:58:19;;;;;;;7.20;3.70;;;;;;;25.96;43.34;100932.35;102997;1296;62202;-83
2023/09/23 07:00:45;;;;;;;9.00;4.00;;;;;;;25.96;43.49;100933.23;102902;1297;62382;-82
2023/09/23 07:03:10;;;;;;;8.30;4.10;;;;;;;25.97;43.49;100932.98;103159;1297;62136;-83
2023/09/23 07:05:37;;;;;;;5.90;4.00;;;;;;;25.98;43.62;100930.02;102968;1292;62606;-82
2023/09/23 07:08:03;;;;;;;7.70;4.00;;;;;;;25.99;43.49;100927.05;103069;1294;62245;-82
2023/09/23 07:10:29;;;;;;;7.50;3.80;;;;;;;25.99;43.49;100924.31;102934;1293;62080;-82
2023/09/23 07:12:55;;;;;;;6.40;4.00;;;;;;;26.00;43.61;100923.36;102771;1294;62261;-81
2023/09/23 07:15:20;;;;;;;5.40;3.70;;;;;;;26.00;43.71;100922.61;102975;1294;62094;-81
2023/09/23 07:17:46;;;;;;;6.40;3.70;;;;;;;26.01;43.82;100924.87;102969;1297;63302;-81
2023/09/23 07:20:12;;;;;;;7.10;4.50;;;;;;;26.01;43.76;100923.77;103043;1293;63466;-81
2023/09/23 07:22:37;;;;;;;5.70;3.50;;;;;;;26.02;43.78;100927.30;103008;1297;62265;-81
2023/09/23 07:25:04;;;;;;;6.60;4.00;;;;;;;26.02;43.67;100934.88;103071;1294;62122;-81
2023/09/23 07:27:30;;;;;;;6.60;4.00;;;;;;;26.03;43.86;100939.34;103051;1295;63975;-81
2023/09/23 07:29:58;;;;;;;6.60;3.70;;;;;;;26.03;43.92;100938.02;102970;1293;67396;-81
2023/09/23 07:32:23;;;;;;;6.70;4.20;;;;;;;26.04;43.62;100941.41;102934;1292;62220;-81
2023/09/23 07:34:49;;;;;;;7.30;4.20;;;;;;;26.04;43.79;100942.11;103018;1293;62158;-81
2023/09/23 07:37:16;;;;;;;8.20;4.30;;;;;;;26.04;43.74;100942.45;103035;1294;62237;-81
2023/09/23 07:39:41;;;;;;;5.60;3.80;;;;;;;26.04;43.89;100942.47;103008;1296;62221;-81
2023/09/23 07:42:07;;;;;;;6.40;4.50;;;;;;;26.05;43.82;100942.02;103019;1294;62168;-81
2023/09/23 07:44:32;;;;;;;6.40;4.00;;;;;;;26.06;43.96;100942.85;102796;1297;62397;-81
2023/09/23 07:46:58;;;;;;;7.00;3.90;;;;;;;26.07;43.82;100942.96;103089;1292;63211;-81
2023/09/23 07:49:24;;;;;;;6.90;4.00;;;;;;;26.06;43.96;100947.32;102991;1297;62134;-81
2023/09/23 07:51:49;;;;;;;6.40;3.80;;;;;;;26.07;43.92;100948.35;102883;1297;62276;-81
2023/09/23 07:54:15;;;;;;;8.20;4.10;;;;;;;26.07;43.98;100943.67;102975;1298;62260;-81
2023/09/23 07:56:41;;;;;;;6.60;4.10;;;;;;;26.06;43.92;100940.45;103109;1294;62118;-81
2023/09/23 07:59:07;;;;;;;7.10;4.20;;;;;;;26.07;44.11;100939.44;102978;1294;62312;-81
2023/09/23 08:01:32;;;;;;;7.30;3.80;;;;;;;26.08;44.20;100936.36;103036;1294;63283;-81
2023/09/23 08:03:58;;;;;;;5.90;3.80;;;;;;;26.08;44.10;100933.83;103014;1295;66623;-82
2023/09/23 08:06:23;;;;;;;7.50;4.10;;;;;;;26.08;44.11;100932.91;102934;1295;63383;-82
2023/09/23 08:08:51;;;;;;;7.90;4.30;;;;;;;26.08;44.22;100928.05;102926;1297;62233;-81
2023/09/23 08:11:16;;;;;;;5.40;3.80;;;;;;;26.08;44.26;100928.35;102999;1297;62221;-81
2023/09/23 08:13:42;;;;;;;6.10;3.90;;;;;;;26.08;44.32;100922.60;102993;1298;62307;-81
2023/09/23 08:16:07;;;;;;;8.90;4.30;;;;;;;26.08;44.21;100921.33;102950;1297;62167;-81
2023/09/23 08:18:33;;;;;;;6.50;3.80;;;;;;;26.08;44.15;100913.95;102958;1297;62130;-81
2023/09/23 08:20:59;;;;;;;6.20;4.20;;;;;;;26.08;44.20;100917.21;103124;1297;62407;-82
2023/09/23 08:23:25;;;;;;;6.40;4.20;;;;;;;26.08;44.29;100916.80;102904;1294;63030;-81
2023/09/23 08:25:52;;;;;;;6.20;4.10;;;;;;;26.08;44.34;100916.63;102951;1294;62113;-81
2023/09/23 08:28:18;;;;;;;6.80;3.80;;;;;;;26.09;44.40;100919.30;102895;1298;62200;-81
2023/09/23 08:30:44;;;;;;;5.80;3.90;;;;;;;26.09;44.28;100921.11;103149;1297;62223;-81
2023/09/23 08:33:12;;;;;;;7.00;4.30;;;;;;;26.09;44.27;100920.93;102907;1295;62106;-82
2023/09/23 08:35:38;;;;;;;6.20;4.00;;;;;;;26.09;44.22;100918.36;102988;1294;62174;-81
2023/09/23 08:38:04;;;;;;;7.00;3.80;;;;;;;26.09;44.30;100917.99;103029;1294;62209;-82
2023/09/23 08:40:38;;;;;;;7.10;3.80;;;;;;;26.09;44.28;100916.55;103051;1297;62538;-82
2023/09/23 08:43:04;;;;;;;6.30;4.10;;;;;;;26.09;44.28;100918.71;102935;1295;63722;-81
2023/09/23 08:45:30;;;;;;;8.40;4.10;;;;;;;26.09;44.39;100916.75;102975;1297;62168;-81
2023/09/23 08:47:57;;;;;;;8.10;4.80;;;;;;;26.10;44.51;100918.14;102948;1297;63144;-81
2023/09/23 08:50:23;;;;;;;7.10;4.20;;;;;;;26.09;44.49;100915.64;102942;1293;62141;-82
2023/09/23 08:52:49;;;;;;;6.20;4.00;;;;;;;26.10;44.38;100910.02;102903;1294;62124;-82
2023/09/23 08:55:16;;;;;;;6.80;4.20;;;;;;;26.09;44.38;100908.79;102944;1297;62192;-82
2023/09/23 08:57:42;;;;;;;7.50;4.20;;;;;;;26.09;44.32;100906.80;102891;1296;62196;-83
2023/09/23 09:00:09;;;;;;;6.20;3.80;;;;;;;26.09;44.47;100909.32;103156;1294;62204;-82
2023/09/23 09:02:34;;;;;;;8.40;4.00;;;;;;;26.09;44.48;100904.46;102814;1297;62320;-82
2023/09/23 09:05:00;;;;;;;5.60;4.00;;;;;;;26.09;44.34;100906.81;102941;1295;62536;-83
2023/09/23 09:07:37;;;;;;;6.50;4.00;;;;;;;26.10;44.45;100904.98;103148;1295;63165;-82
2023/09/23 09:10:04;;;;;;;5.40;3.80;;;;;;;26.09;44.29;100904.64;103043;1295;62196;-82
2023/09/23 09:12:33;;;;;;;6.90;4.20;;;;;;;26.09;44.39;100908.61;102999;1295;63717;-82
2023/09/23 09:14:58;;;;;;;;;;;;;;;26.10;44.45;100906.78;102973;1296;66648;-82
2023/09/23 09:17:24;;;;;;;7.20;4.10;;;;;;;26.08;44.34;100906.96;102926;1298;63309;-82
2023/09/23 09:19:50;;;;;;;5.90;3.90;;;;;;;26.08;44.25;100902.98;102912;1293;62212;-82
2023/09/23 09:22:16;;;;;;;6.50;3.80;;;;;;;26.08;44.47;100903.86;102960;1292;62182;-82
2023/09/23 09:24:42;;;;;;;6.10;4.20;;;;;;;26.08;44.48;100902.55;102974;1293;63386;-82
2023/09/23 09:27:13;;;;;;;6.60;4.30;;;;;;;26.08;44.56;100900.03;103106;1294;63426;-82
2023/09/23 09:29:43;;;;;;;7.70;3.90;;;;;;;26.08;44.51;100897.32;102811;1297;62191;-82
2023/09/23 09:32:10;;;;;;;10.20;4.30;;;;;;;26.09;44.42;100898.92;102928;1297;63601;-82
2023/09/23 09:34:46;;;;;;;6.50;3.80;;;;;;;26.08;44.30;100898.40;102903;1292;62147;-83
2023/09/23 09:37:13;;;;;;;7.30;4.20;;;;;;;26.09;44.44;100901.27;102996;1292;62081;-83
2023/09/23 09:39:59;;;;;;;9.00;4.40;;;;;;;26.09;44.55;100897.45;102981;1295;62151;-82
2023/09/23 09:42:30;;;;;;;5.90;3.60;;;;;;;26.08;44.38;100894.44;102952;1294;63880;-82
2023/09/23 09:44:56;;;;;;;7.20;4.20;;;;;;;26.09;44.50;100895.13;103042;1293;66684;-82
2023/09/23 09:47:22;;;;;;;6.50;3.90;;;;;;;26.09;44.43;100898.52;102958;1294;62122;-82
2023/09/23 09:49:50;;;;;;;5.80;4.10;;;;;;;26.09;44.41;100895.61;102944;1293;62245;-82
2023/09/23 09:52:18;;;;;;;7.20;3.90;;;;;;;26.09;44.31;100893.11;102960;1295;64162;-82
2023/09/23 09:54:44;;;;;;;6.10;3.70;;;;;;;26.09;44.40;100884.65;102645;1297;65570;-82
2023/09/23 09:57:12;;;;;;;7.40;4.00;;;;;;;26.09;44.32;100881.00;103043;1294;62205;-81
2023/09/23 09:59:41;;;;;;;5.60;3.80;;;;;;;26.09;44.58;100876.33;102893;1295;62088;-81
2023/09/23 10:02:08;;;;;;;6.70;3.70;;;;;;;26.09;44.58;100873.80;102927;1293;63997;-81
2023/09/23 10:04:33;;;;;;;6.80;3.90;;;;;;;26.09;44.45;100873.42;103105;1294;63392;-81
2023/09/23 10:06:59;;;;;;;5.70;4.00;;;;;;;26.10;44.36;100873.23;102991;1296;62213;-81
2023/09/23 10:09:29;;;;;;;5.60;3.90;;;;;;;26.09;44.29;100874.17;103028;1292;62363;-81
2023/09/23 10:11:55;;;;;;;6.80;3.80;;;;;;;26.09;44.34;100873.27;102967;1293;63795;-81
2023/09/23 10:14:23;;;;;;;7.50;3.90;;;;;;;26.09;44.36;100874.88;102948;1292;66395;-81
2023/09/23 10:16:50;;;;;;;9.70;4.10;;;;;;;26.09;44.27;100881.92;103020;1293;62206;-81
2023/09/23 10:19:15;;;;;;;6.50;4.00;;;;;;;26.10;44.31;100878.08;103082;1293;62195;-81
2023/09/23 10:21:44;;;;;;;5.70;3.60;;;;;;;26.10;44.34;100870.47;102969;1292;62186;-81
2023/09/23 10:24:18;;;;;;;5.60;3.40;;;;;;;26.10;44.40;100862.73;102973;1294;66603;-81
2023/09/23 10:26:44;;;;;;;5.40;3.50;;;;;;;26.10;44.41;100854.81;103079;1293;62147;-82
2023/09/23 10:29:10;;;;;;;7.10;3.50;;;;;;;26.10;44.42;100852.28;102998;1292;62204;-81
2023/09/23 10:31:37;;;;;;;6.30;3.70;;;;;;;26.10;44.29;100850.31;103022;1294;62204;-81
2023/09/23 10:34:08;;;;;;;5.60;3.80;;;;;;;26.10;44.38;100850.83;102927;1294;62531;-81
2023/09/23 10:36:36;;;;;;;7.00;4.00;;;;;;;26.09;44.32;100847.66;103020;1292;62136;-82
2023/09/23 10:39:06;;;;;;;7.30;3.50;;;;;;;26.10;44.34;100842.91;103025;1293;62116;-81
2023/09/23 10:41:33;;;;;;;5.40;3.70;;;;;;;26.10;44.30;100836.79;102864;1297;64001;-81
2023/09/23 10:43:59;;;;;;;6.50;3.80;;;;;;;26.10;44.39;100834.42;103533;1294;67789;-82
2023/09/23 10:46:25;;;;;;;5.80;3.60;;;;;;;26.10;44.42;100834.23;102944;1297;62159;-81
2023/09/23 10:48:50;;;;;;;6.20;4.10;;;;;;;26.10;44.24;100825.59;102919;1293;62227;-81
2023/09/23 10:51:17;;;;;;;6.50;3.60;;;;;;;26.10;44.26;100822.11;102984;1297;63502;-81
2023/09/23 10:53:42;;;;;;;5.90;4.00;;;;;;;26.10;44.26;100821.44;102948;1294;62319;-81
2023/09/23 10:56:10;;;;;;;7.20;4.00;;;;;;;26.10;44.20;100822.52;103087;1295;62197;-82
2023/09/23 10:58:36;;;;;;;6.50;4.00;;;;;;;26.10;44.29;100812.59;102928;1292;62659;-81
2023/09/23 11:01:04;;;;;;;6.80;3.60;;;;;;;26.10;44.29;100808.80;103046;1295;62309;-82
2023/09/23 11:03:30;;;;;;;6.80;3.80;;;;;;;26.10;44.33;100807.91;102988;1293;63774;-81
2023/09/23 11:05:56;;;;;;;6.10;4.10;;;;;;;26.10;44.28;100804.83;102934;1296;62218;-81
2023/09/23 11:08:22;;;;;;;6.30;3.90;;;;;;;26.11;44.40;100805.47;103032;1294;62287;-81
2023/09/23 11:10:49;;;;;;;7.30;3.80;;;;;;;26.11;44.20;100801.36;102976;1294;62175;-81
2023/09/23 11:13:15;;;;;;;7.10;3.90;;;;;;;26.10;44.08;100803.39;102932;1295;62868;-82
2023/09/23 11:15:43;;;;;;;6.40;4.10;;;;;;;26.10;44.18;100795.64;102965;1297;62132;-81